Latest Weather Observations for Smithton

IDT60801

Issued at 6:35 pm EST Sunday 20 April 2014 (issued every 30 minutes, with the page automatically refreshed every 10 minutes)

About weather observations | Map of weather stations | Latest weather observations for TAS | Other Formats
Station Details ID: 091292 Name: SMITHTON AERODROME Lat: -40.83 Lon: 145.08 Height: 7.5 m
Data from the previous 72 hours. | See also: Recent months at Smithton
Date/Time
EST
Temp
°C
App
Temp
°C
Dew
Point
Rel
Hum
%
Delta-T
°C
Wind Press
QNH
hPa
Press
MSL
hPa
Rain
since 9 am
mm
Dir
 
Spd
km/h
Gust
km/h
Spd
kts
Gust
kts
20/06:30pm 12.4 8.8 10.5 88 1.0 SW 20 32 11 17 1014.5 - 1.4
20/06:00pm 12.5 9.6 11.1 91 0.7 SSW 17 20 9 11 1014.0 1014.0 1.4
20/05:30pm 13.1 10.3 11.5 90 0.8 SW 17 22 9 12 1013.6 - 1.4
20/05:00pm 13.6 10.4 11.8 89 1.0 SW 20 28 11 15 1013.3 - 1.4
20/04:30pm 14.2 10.7 12.1 87 1.1 SW 22 30 12 16 1013.0 - 1.4
20/04:00pm 14.5 10.5 12.9 90 0.9 SW 26 35 14 19 1012.9 - 1.4
20/03:30pm 14.9 10.0 13.6 92 0.7 WSW 32 43 17 23 1012.3 - 1.4
20/03:21pm 14.6 10.2 12.8 89 1.0 W 28 46 15 25 1012.2 - 1.4
20/03:00pm 16.1 12.2 12.1 77 2.2 W 24 35 13 19 1011.8 1011.8 0.6
20/02:30pm 16.2 12.8 12.4 78 2.1 W 22 33 12 18 1011.8 - 0.4
20/02:00pm 16.1 11.6 11.3 73 2.6 W 26 39 14 21 1011.8 - 0.4
20/01:43pm 16.1 10.7 12.1 77 2.2 W 32 50 17 27 1011.9 - 0.4
20/01:30pm 15.9 10.9 12.1 78 2.1 W 30 43 16 23 1012.0 - 0.4
20/01:00pm 15.9 10.8 11.9 77 2.2 W 30 41 16 22 1012.3 - 0.4
20/12:30pm 15.7 12.6 13.4 86 1.3 W 22 35 12 19 1012.5 - 0.4
20/12:00pm 14.2 8.7 11.7 85 1.3 W 32 57 17 31 1013.1 1013.1 0.2
20/11:35am 16.1 11.4 12.1 77 2.2 WNW 28 48 15 26 1013.2 - 0.0
20/11:30am 15.8 12.1 12.7 82 1.7 WNW 24 39 13 21 1013.2 - 0.0
20/11:00am 14.0 8.7 11.3 84 1.4 WNW 30 48 16 26 1013.5 - 0.0
20/10:56am 14.9 9.5 10.9 77 2.1 WNW 30 48 16 26 1013.4 - 0.0
20/10:30am 16.7 12.3 11.6 72 2.8 W 26 35 14 19 1013.4 - 0.0
20/10:00am 15.1 12.5 11.9 81 1.7 WNW 17 20 9 11 1013.6 - 0.0
20/09:30am 15.0 12.6 12.7 86 1.3 NW 17 20 9 11 1013.7 - 0.0
20/09:00am 13.6 13.9 13.3 98 0.2 WNW 4 15 2 8 1013.8 1013.8 1.2
20/08:30am 10.6 9.6 10.4 99 0.1 WNW 6 11 3 6 1014.0 - 1.2
20/08:00am 10.4 7.7 10.2 99 0.1 WNW 15 22 8 12 1014.1 - 1.2
20/07:30am 6.7 5.9 6.6 99 0.0 CALM 0 0 0 0 1013.8 - 1.0
20/07:00am 6.7 5.9 6.6 99 0.0 CALM 0 0 0 0 1013.6 - 1.0
20/06:30am 7.8 6.5 7.7 99 0.0 SSW 4 7 2 4 1013.6 - 1.0
20/06:00am 7.3 4.6 7.2 99 0.0 SW 11 20 6 11 1014.0 1014.0 0.8
20/05:30am 7.0 5.1 6.9 99 0.0 SW 6 11 3 6 1013.6 - 0.8
20/05:00am 7.6 5.7 7.5 99 0.0 SW 7 7 4 4 1013.7 - 0.8
20/04:30am 7.9 7.4 7.8 99 0.0 CALM 0 0 0 0 1013.6 - 0.8
20/04:00am 7.9 7.4 7.8 99 0.0 CALM 0 6 0 3 1013.9 - 0.8
20/03:30am 8.6 8.3 8.5 99 0.0 CALM 0 6 0 3 1014.0 - 0.8
20/03:00am 8.6 5.8 8.5 99 0.0 SW 13 20 7 11 1014.3 1014.3 0.4
20/02:30am 8.3 7.9 8.2 99 0.0 CALM 0 4 0 2 1014.2 - 0.0
20/02:00am 8.3 7.5 8.2 99 0.0 S 2 6 1 3 1014.7 - 0.0
20/01:30am 8.2 6.4 8.1 99 0.0 S 7 9 4 5 1014.9 - 0.0
20/01:00am 8.1 7.6 8.0 99 0.0 CALM 0 0 0 0 1015.2 - 0.0
20/12:30am 8.2 5.3 8.1 99 0.0 S 13 15 7 8 1015.6 - 0.0
20/12:00am 7.9 7.0 7.6 98 0.1 SSE 2 6 1 3 1015.6 1015.6 0.0
 
Date/Time
EST
Temp
°C
App
Temp
°C
Dew
Point
Rel
Hum
%
Delta-T
°C
Wind Press
QNH
hPa
Press
MSL
hPa
Rain
since 9 am
mm
Dir
 
Spd
km/h
Gust
km/h
Spd
kts
Gust
kts
19/11:30pm 8.2 6.4 7.9 98 0.1 SSE 7 9 4 5 1015.7 - 0.0
19/11:00pm 8.3 7.1 8.0 98 0.1 SSE 4 9 2 5 1016.0 - 0.0
19/10:30pm 8.7 7.0 8.4 98 0.1 SSE 7 9 4 5 1016.2 - 0.0
19/10:00pm 9.0 7.9 8.5 97 0.2 S 4 7 2 4 1016.8 - 0.0
19/09:30pm 8.7 7.2 8.3 97 0.2 S 6 9 3 5 1017.2 - 0.0
19/09:00pm 8.1 7.5 7.5 96 0.3 CALM 0 7 0 4 1017.1 1017.1 0.0
19/08:30pm 7.8 6.0 7.2 96 0.3 S 6 7 3 4 1017.1 - 0.0
19/08:00pm 7.8 5.7 6.7 93 0.5 S 7 9 4 5 1017.1 - 0.0
19/07:30pm 9.1 5.7 7.5 90 0.8 S 15 17 8 9 1017.2 - 0.0
19/07:00pm 8.2 6.2 7.1 93 0.5 SSW 7 9 4 5 1017.3 - 0.0
19/06:30pm 7.6 5.0 6.2 91 0.6 SSW 9 11 5 6 1017.0 - 0.0
19/06:00pm 8.4 5.8 5.9 84 1.1 SSW 9 11 5 6 1016.8 1016.8 0.0
19/05:30pm 10.3 7.2 7.2 81 1.5 SSW 13 15 7 8 1016.7 - 0.0
19/05:00pm 11.8 8.3 7.1 73 2.3 WSW 15 17 8 9 1016.8 - 0.0
19/04:30pm 12.0 8.1 7.3 73 2.3 WSW 17 26 9 14 1016.8 - 0.0
19/04:00pm 12.3 8.1 7.4 72 2.4 WSW 19 24 10 13 1017.0 - 0.0
19/03:30pm 13.1 8.2 6.7 65 3.1 SW 22 30 12 16 1017.0 - 0.0
19/03:00pm 13.1 8.1 6.5 64 3.1 SSW 22 32 12 17 1017.1 1017.1 0.0
19/02:30pm 13.3 7.8 5.9 61 3.5 SW 24 32 13 17 1017.0 - 0.0
19/02:00pm 13.7 8.2 6.1 60 3.6 SW 24 32 13 17 1017.1 - 0.0
19/01:30pm 13.5 9.1 6.6 63 3.3 SW 19 26 10 14 1017.2 - 0.0
19/01:00pm 13.7 9.1 6.6 62 3.4 SW 20 28 11 15 1017.3 - 0.0
19/12:30pm 13.1 7.0 6.7 65 3.1 SW 28 35 15 19 1017.9 - 0.0
19/12:00pm 13.9 7.6 5.5 57 3.9 SW 28 37 15 20 1018.1 1018.1 0.0
19/11:30am 13.9 9.1 7.4 65 3.2 SW 22 30 12 16 1018.3 - 0.0
19/11:00am 13.4 9.3 7.8 69 2.8 WSW 19 22 10 12 1018.5 - 0.0
19/10:30am 12.6 8.2 7.3 70 2.6 SW 20 28 11 15 1018.5 - 0.0
19/10:00am 12.4 8.2 7.5 72 2.4 SW 19 28 10 15 1018.6 - 0.0
19/09:30am 12.2 8.8 7.5 73 2.3 SW 15 20 8 11 1018.6 - 0.0
19/09:00am 11.7 8.7 7.8 77 1.9 SW 13 20 7 11 1018.6 1018.6 1.0
19/08:30am 10.9 7.9 7.6 80 1.6 SSW 13 19 7 10 1018.4 - 1.0
19/08:00am 10.4 8.3 8.2 86 1.1 SSW 9 11 5 6 1018.2 - 1.0
19/07:30am 9.4 6.6 7.0 85 1.1 SSW 11 15 6 8 1017.8 - 1.0
19/07:00am 9.0 5.5 7.1 88 0.9 WSW 15 19 8 10 1017.7 - 1.0
19/06:30am 8.4 5.2 7.0 91 0.7 SSW 13 15 7 8 1017.6 - 1.0
19/06:00am 9.3 5.1 7.6 89 0.8 SSW 19 24 10 13 1017.5 1017.5 1.0
19/05:30am 7.6 4.6 6.2 91 0.6 WSW 11 13 6 7 1017.3 - 1.0
19/05:00am 8.1 4.5 6.6 90 0.7 WSW 15 20 8 11 1017.1 - 1.0
19/04:30am 9.7 5.4 8.0 89 0.8 SW 20 28 11 15 1017.1 - 1.0
19/04:00am 9.3 3.9 8.2 93 0.5 SW 26 33 14 18 1017.3 - 0.8
19/03:30am 8.5 5.0 7.1 91 0.7 SW 15 17 8 9 1017.1 - 0.8
19/03:00am 8.5 5.4 7.1 91 0.7 SW 13 15 7 8 1017.1 1017.1 0.8
19/02:30am 9.7 5.4 8.0 89 0.8 SSW 20 28 11 15 1017.3 - 0.8
19/02:00am 9.7 5.6 7.8 88 0.9 SW 19 26 10 14 1017.5 - 0.8
19/01:30am 9.7 5.6 8.5 92 0.6 WSW 20 28 11 15 1017.7 - 0.8
19/01:00am 9.8 6.0 7.6 86 1.0 WSW 17 20 9 11 1017.6 - 0.8
19/12:30am 9.6 5.2 7.5 87 1.0 SSW 20 28 11 15 1017.5 - 0.8
19/12:00am 8.9 5.2 6.3 84 1.2 WSW 15 17 8 9 1017.4 1017.4 0.8
 
Date/Time
EST
Temp
°C
App
Temp
°C
Dew
Point
Rel
Hum
%
Delta-T
°C
Wind Press
QNH
hPa
Press
MSL
hPa
Rain
since 9 am
mm
Dir
 
Spd
km/h
Gust
km/h
Spd
kts
Gust
kts
18/11:30pm 10.4 5.6 7.3 81 1.5 W 22 30 12 16 1017.3 - 0.8
18/11:00pm 9.0 5.4 6.8 86 1.0 WSW 15 19 8 10 1017.2 - 0.8
18/10:30pm 9.7 5.9 7.5 86 1.0 WSW 17 19 9 10 1017.4 - 0.8
18/10:00pm 9.7 6.0 7.8 88 0.9 W 17 22 9 12 1017.4 - 0.8
18/09:30pm 8.8 5.7 7.4 91 0.7 WSW 13 17 7 9 1017.1 - 0.8
18/09:00pm 9.2 5.4 7.5 89 0.8 WSW 17 20 9 11 1016.9 1016.9 0.8
18/08:30pm 10.2 4.1 8.3 88 0.9 WSW 30 41 16 22 1016.6 - 0.8
18/08:00pm 10.4 4.6 8.0 85 1.2 SW 28 46 15 25 1016.4 - 0.6
18/07:57pm 10.5 4.7 8.1 85 1.2 SW 28 46 15 25 1016.4 - 0.6
18/07:30pm 11.1 5.5 7.2 77 1.9 WSW 26 41 14 22 1016.1 - 0.2
18/07:00pm 10.5 6.1 7.6 82 1.4 WSW 20 24 11 13 1016.0 - 0.2
18/06:30pm 11.6 6.0 7.1 74 2.2 SW 26 39 14 21 1015.8 - 0.2
18/06:00pm 10.9 6.0 7.0 77 1.9 SW 22 30 12 16 1015.1 1015.1 0.2
18/05:30pm 11.6 6.2 7.9 78 1.8 SW 26 35 14 19 1014.9 - 0.2
18/05:00pm 13.2 6.6 7.6 69 2.7 WSW 32 43 17 23 1014.5 - 0.2
18/04:30pm 13.4 6.2 6.0 61 3.5 SW 33 44 18 24 1014.1 - 0.2
18/04:16pm 14.2 7.2 7.0 62 3.5 SW 33 52 18 28 1013.9 - 0.2
18/04:00pm 14.2 6.5 7.3 63 3.4 SW 37 46 20 25 1013.7 - 0.2
18/03:30pm 13.7 5.5 8.3 70 2.7 SW 41 56 22 30 1013.6 - 0.2
18/03:13pm 14.7 6.9 6.8 59 3.8 SW 37 59 20 32 1013.2 - 0.2
18/03:00pm 15.1 6.7 7.4 60 3.8 WSW 41 54 22 29 1013.2 1013.2 0.2
18/02:30pm 13.5 5.7 8.1 70 2.7 SW 39 56 21 30 1012.8 - 0.2
18/02:00pm 13.6 5.2 7.2 65 3.1 SW 41 61 22 33 1012.5 - 0.2
18/01:51pm 14.7 6.0 7.7 63 3.5 SW 43 61 23 33 1012.5 - 0.2
18/01:30pm 15.8 7.1 7.6 58 4.1 SW 43 57 23 31 1012.3 - 0.2
18/01:00pm 14.7 6.2 8.6 67 3.1 SW 43 57 23 31 1012.2 - 0.2
18/12:30pm 16.1 6.7 7.3 56 4.4 WSW 46 56 25 30 1012.1 - 0.2
18/12:08pm 14.8 7.1 6.9 59 3.9 SW 37 63 20 34 1012.1 - 0.2
18/12:00pm 14.9 6.8 8.6 66 3.2 SW 41 52 22 28 1012.3 1012.3 0.2
18/11:30am 14.6 6.5 8.8 68 2.9 SW 41 54 22 29 1012.2 - 0.2
18/11:25am 15.2 8.4 9.3 68 3.0 SW 35 54 19 29 1012.1 - 0.2
18/11:00am 15.0 9.6 10.8 76 2.2 SW 30 39 16 21 1012.1 - 0.2
18/10:30am 13.3 7.9 11.0 86 1.2 SW 30 41 16 22 1011.9 - 0.2
18/10:00am 11.9 8.7 11.4 97 0.3 SW 19 24 10 13 1012.3 - 0.2
18/09:30am 11.8 8.6 11.3 97 0.3 SW 19 22 10 12 1012.2 - 0.2
18/09:00am 11.5 8.0 10.9 96 0.3 S 20 28 11 15 1011.6 1011.6 4.6
18/08:30am 11.5 5.6 10.6 94 0.5 SSW 32 43 17 23 1012.2 - 4.2
18/08:07am 11.9 3.9 11.0 94 0.5 SW 44 63 24 34 1011.8 - 4.2
18/08:00am 12.0 3.6 11.1 94 0.5 WSW 46 74 25 40 1011.6 - 3.6
18/07:58am 12.2 3.1 11.3 94 0.5 WSW 50 74 27 40 1011.5 - 3.6
18/07:55am 13.0 6.2 12.1 94 0.5 WNW 39 74 21 40 1011.3 - 2.6
18/07:54am 14.4 10.3 13.9 97 0.3 WNW 28 44 15 24 1011.4 - 2.2
18/07:30am 14.3 11.7 13.3 94 0.6 NNW 19 24 10 13 1010.8 - 1.0
18/07:00am 15.0 12.3 12.9 87 1.2 NNW 19 24 10 13 1010.6 - 0.0
18/06:30am 14.9 13.0 12.9 88 1.1 NW 15 19 8 10 1011.1 - 0.0
18/06:00am 14.6 12.6 12.6 88 1.1 NW 15 20 8 11 1011.3 1011.3 0.0
18/05:30am 13.9 12.2 12.3 90 0.9 NNW 13 19 7 10 1011.5 - 0.0
18/05:00am 13.5 12.4 13.0 97 0.3 NNW 11 15 6 8 1011.8 - 0.0
18/04:30am 11.5 9.7 10.9 96 0.3 NNW 11 13 6 7 1012.2 - 0.0
18/04:00am 12.5 11.7 11.7 95 0.4 NNW 7 9 4 5 1012.4 - 0.0
18/03:30am 12.8 12.3 11.9 94 0.5 NNW 6 7 3 4 1013.0 - 0.0
18/03:00am 13.5 12.8 11.9 90 0.9 NNW 7 9 4 5 1013.3 1013.3 0.0
18/02:30am 15.3 14.4 13.8 91 0.8 NNW 11 15 6 8 1013.7 - 0.0
18/02:00am 15.1 13.7 13.3 89 1.0 NNW 13 15 7 8 1014.1 - 0.0
18/01:30am 15.3 14.4 13.8 91 0.8 NNW 11 15 6 8 1014.6 - 0.0
18/01:00am 15.3 14.0 13.8 91 0.8 NW 13 20 7 11 1014.9 - 0.0
18/12:30am 15.4 14.6 13.9 91 0.8 N 11 19 6 10 1015.1 - 0.0
18/12:00am 14.9 14.3 14.6 98 0.2 N 11 15 6 8 1015.6 1015.6 0.0
 
Date/Time
EST
Temp
°C
App
Temp
°C
Dew
Point
Rel
Hum
%
Delta-T
°C
Wind Press
QNH
hPa
Press
MSL
hPa
Rain
since 9 am
mm
Dir
 
Spd
km/h
Gust
km/h
Spd
kts
Gust
kts
17/11:30pm 13.7 12.7 13.5 99 0.1 N 11 13 6 7 1016.0 - 0.0
17/11:00pm 10.5 9.3 10.2 98 0.2 N 7 9 4 5 1016.2 - 0.0
17/10:30pm 10.7 10.9 10.4 98 0.2 CALM 0 0 0 0 1016.7 - 0.0
17/10:00pm 11.2 10.7 10.6 96 0.3 N 4 7 2 4 1017.0 - 0.0
17/09:30pm 12.7 11.7 12.2 97 0.3 N 9 11 5 6 1017.0 - 0.0
17/09:00pm 12.8 13.5 12.3 97 0.3 CALM 0 0 0 0 1017.3 1017.3 0.0
17/08:30pm 12.2 12.7 11.6 96 0.3 CALM 0 0 0 0 1017.6 - 0.0
17/08:00pm 11.2 10.1 10.1 93 0.6 N 6 7 3 4 1017.8 - 0.0
17/07:30pm 12.2 11.3 11.3 94 0.5 N 7 9 4 5 1017.5 - 0.0
17/07:00pm 13.0 12.1 11.4 90 0.8 N 7 9 4 5 1017.8 - 0.0

Other Formats:

Comma delimited format used in spreadsheet applications
http://www.bom.gov.au/fwo/IDT60801/IDT60801.94953.axf

JavaScript Object Notation format (JSON) in row-major order
http://www.bom.gov.au/fwo/IDT60801/IDT60801.94953.json